createdAt,value
2022-12-19T00:00:04.864Z,27.90
2022-12-19T00:00:45.133Z,28.80
2022-12-19T00:01:26.814Z,29.13
2022-12-19T00:01:58.666Z,29.55
2022-12-19T00:02:30.692Z,29.98
2022-12-19T00:03:02.470Z,28.25
2022-12-19T00:03:34.199Z,29.33
2022-12-19T00:04:09.123Z,28.20
2022-12-19T00:04:40.809Z,28.20
2022-12-19T00:05:13.419Z,27.27
2022-12-19T00:05:45.031Z,28.95
2022-12-19T00:06:17.552Z,29.77
2022-12-19T00:06:49.035Z,28.08
2022-12-19T00:07:20.596Z,30.52
2022-12-19T00:07:53.563Z,29.24
2022-12-19T00:08:25.219Z,30.27
2022-12-19T00:08:58.958Z,30.10
2022-12-19T00:09:30.462Z,27.17
2022-12-19T00:10:04.523Z,28.63
2022-12-19T00:10:36.022Z,30.08
2022-12-19T00:11:07.517Z,30.08
2022-12-19T00:11:39.854Z,30.20
2022-12-19T00:12:19.066Z,28.45
2022-12-19T00:12:51.000Z,27.92
2022-12-19T00:13:22.771Z,29.30
2022-12-19T00:13:54.291Z,26.98
2022-12-19T00:14:25.811Z,29.48
2022-12-19T00:14:57.301Z,28.42
2022-12-19T00:15:30.335Z,27.58
2022-12-19T00:16:04.206Z,28.63
2022-12-19T00:16:35.825Z,29.25
2022-12-19T00:17:10.568Z,27.98
2022-12-19T00:17:42.149Z,28.98
2022-12-19T00:18:14.316Z,27.58
2022-12-19T00:18:47.087Z,29.65
2022-12-19T00:19:18.637Z,27.55
2022-12-19T00:19:50.291Z,26.73
2022-12-19T00:20:21.791Z,28.26
2022-12-19T00:21:01.460Z,30.20
2022-12-19T00:21:35.101Z,27.60
2022-12-19T00:22:11.016Z,29.60
2022-12-19T00:22:45.708Z,29.50
2022-12-19T00:23:17.186Z,29.15
2022-12-19T00:23:49.395Z,27.80
2022-12-19T00:24:21.918Z,30.20
2022-12-19T00:24:53.483Z,29.25
2022-12-19T00:25:25.017Z,28.65
2022-12-19T00:26:14.574Z,30.98
2022-12-19T00:26:46.092Z,26.65
2022-12-19T00:27:17.618Z,30.42
2022-12-19T00:27:49.149Z,29.38
2022-12-19T00:28:23.696Z,29.08
2022-12-19T00:28:58.215Z,28.98
2022-12-19T00:29:29.714Z,28.96
2022-12-19T00:30:01.218Z,28.73
2022-12-19T00:30:34.965Z,28.60
2022-12-19T00:31:07.985Z,29.58
2022-12-19T00:31:39.663Z,29.92
2022-12-19T00:32:11.375Z,30.17
2022-12-19T00:32:47.670Z,27.92
2022-12-19T00:33:19.181Z,30.26
2022-12-19T00:33:50.741Z,30.83
2022-12-19T00:34:22.246Z,30.17
2022-12-19T00:34:53.751Z,26.18
2022-12-19T00:35:25.342Z,28.60
2022-12-19T00:36:01.041Z,28.80
2022-12-19T00:36:34.424Z,29.63
2022-12-19T00:37:05.931Z,29.30
2022-12-19T00:37:37.498Z,28.36
2022-12-19T00:38:12.956Z,27.83
2022-12-19T00:38:45.890Z,28.73
2022-12-19T00:39:17.492Z,29.63
2022-12-19T00:39:50.798Z,28.90
2022-12-19T00:40:22.455Z,28.96
2022-12-19T00:40:55.924Z,29.63
2022-12-19T00:41:29.895Z,29.50
2022-12-19T00:42:01.471Z,28.05
2022-12-19T00:42:33.254Z,31.00
2022-12-19T00:43:04.784Z,29.24
2022-12-19T00:43:36.763Z,27.70
2022-12-19T00:44:12.048Z,29.40
2022-12-19T00:44:47.403Z,28.83
2022-12-19T00:45:18.891Z,27.83
2022-12-19T00:45:50.482Z,30.92
2022-12-19T00:46:22.776Z,28.80
2022-12-19T00:46:54.330Z,30.52
2022-12-19T00:47:28.615Z,27.85
2022-12-19T00:48:00.135Z,29.15
2022-12-19T00:48:32.346Z,27.52
2022-12-19T00:49:04.124Z,29.45
2022-12-19T00:49:35.896Z,27.85
2022-12-19T00:50:09.074Z,27.48
2022-12-19T00:50:40.569Z,27.60
2022-12-19T00:51:15.547Z,28.20
2022-12-19T00:51:47.174Z,30.00
2022-12-19T00:52:18.780Z,27.25
2022-12-19T00:52:50.313Z,28.40
2022-12-19T00:53:21.815Z,27.98
2022-12-19T00:53:54.793Z,29.52
2022-12-19T00:54:27.010Z,27.65
2022-12-19T00:54:58.867Z,28.25
2022-12-19T00:55:30.721Z,27.20
2022-12-19T00:56:03.943Z,27.52
2022-12-19T00:56:37.340Z,26.00
2022-12-19T00:57:11.207Z,28.80
2022-12-19T00:57:48.797Z,30.33
2022-12-19T00:58:20.299Z,29.25
2022-12-19T00:58:53.967Z,29.75
2022-12-19T00:59:26.754Z,28.30
2022-12-19T01:00:01.123Z,27.25
2022-12-19T01:00:32.768Z,28.25
2022-12-19T01:01:09.966Z,28.20
2022-12-19T01:01:42.150Z,26.98
2022-12-19T01:02:14.073Z,27.42
2022-12-19T01:02:45.915Z,29.73
2022-12-19T01:03:17.615Z,29.73
2022-12-19T01:04:26.075Z,30.08
2022-12-19T01:04:41.989Z,26.42
2022-12-19T01:05:18.491Z,27.33
2022-12-19T01:05:51.224Z,27.85
2022-12-19T01:06:23.183Z,28.52
2022-12-19T01:06:57.911Z,27.42
2022-12-19T01:07:36.334Z,29.80
2022-12-19T01:08:07.844Z,30.83
2022-12-19T01:08:39.680Z,29.67
2022-12-19T01:09:12.296Z,29.17
2022-12-19T01:09:43.829Z,27.23
2022-12-19T01:10:17.225Z,28.73
2022-12-19T01:10:50.094Z,29.52
2022-12-19T01:11:41.972Z,27.58
2022-12-19T01:12:32.366Z,28.13
2022-12-19T01:13:03.970Z,27.40
2022-12-19T01:13:36.811Z,28.17
2022-12-19T01:14:22.531Z,28.80
2022-12-19T01:15:03.974Z,26.00
2022-12-19T01:15:39.298Z,26.90
2022-12-19T01:16:13.045Z,26.30
2022-12-19T01:16:44.731Z,29.23
2022-12-19T01:17:16.347Z,28.98
2022-12-19T01:17:49.062Z,28.50
2022-12-19T01:18:20.767Z,28.17
2022-12-19T01:18:52.878Z,30.42
2022-12-19T01:19:24.423Z,26.27
2022-12-19T01:19:57.342Z,30.38
2022-12-19T01:20:30.016Z,30.45
2022-12-19T01:21:10.036Z,28.88
2022-12-19T01:21:41.834Z,28.80
2022-12-19T01:22:14.438Z,28.00
2022-12-19T01:22:46.259Z,29.85
2022-12-19T01:23:18.156Z,26.80
2022-12-19T01:23:49.681Z,27.48
2022-12-19T01:24:21.211Z,30.30
2022-12-19T01:24:54.300Z,27.85
2022-12-19T01:25:25.868Z,29.65
2022-12-19T01:25:57.683Z,30.08
2022-12-19T01:26:29.410Z,29.13
2022-12-19T01:27:00.929Z,29.27
2022-12-19T01:27:32.462Z,31.23
2022-12-19T01:28:06.163Z,30.38
2022-12-19T01:28:37.690Z,29.80
2022-12-19T01:29:09.210Z,30.35
2022-12-19T01:29:52.400Z,30.08
2022-12-19T01:30:25.183Z,31.75
2022-12-19T01:30:57.663Z,31.52
2022-12-19T01:31:29.205Z,30.60
2022-12-19T01:32:00.806Z,30.52
2022-12-19T01:32:35.162Z,29.23
2022-12-19T01:33:06.790Z,28.40
2022-12-19T01:33:40.909Z,30.73
2022-12-19T01:34:15.019Z,28.75
2022-12-19T01:34:46.790Z,28.45
2022-12-19T01:35:21.149Z,32.33
2022-12-19T01:35:53.419Z,30.58
2022-12-19T01:36:25.200Z,30.60
2022-12-19T01:36:56.850Z,30.05
2022-12-19T01:37:28.354Z,29.30
2022-12-19T01:38:08.132Z,28.92
2022-12-19T01:38:40.604Z,28.23
2022-12-19T01:39:12.164Z,31.33
2022-12-19T01:39:44.912Z,31.48
2022-12-19T01:40:18.669Z,30.02
2022-12-19T01:40:55.513Z,32.85
2022-12-19T01:41:27.190Z,30.23
2022-12-19T01:41:58.992Z,30.88
2022-12-19T01:42:37.852Z,28.17
2022-12-19T01:43:13.953Z,32.75
2022-12-19T01:43:58.045Z,32.70
2022-12-19T01:44:31.427Z,29.92
2022-12-19T01:45:12.126Z,31.60
2022-12-19T01:45:47.023Z,31.75
2022-12-19T01:46:37.264Z,31.30
2022-12-19T01:47:11.371Z,30.70
2022-12-19T01:47:57.414Z,29.55
2022-12-19T01:48:38.023Z,31.75
2022-12-19T01:49:45.281Z,30.33
2022-12-19T01:50:25.390Z,31.67
2022-12-19T01:51:01.853Z,31.58
2022-12-19T01:51:42.657Z,32.92
2022-12-19T01:52:23.501Z,32.53
2022-12-19T01:52:57.074Z,33.25
2022-12-19T01:53:33.129Z,32.63
2022-12-19T01:54:07.295Z,33.30
2022-12-19T01:54:40.571Z,33.60
2022-12-19T01:55:12.628Z,32.50
2022-12-19T01:55:44.528Z,32.17
2022-12-19T01:56:18.253Z,33.10
2022-12-19T01:56:52.306Z,34.25
2022-12-19T01:57:23.990Z,33.72
2022-12-19T01:57:56.705Z,33.70
2022-12-19T01:58:28.313Z,34.22
2022-12-19T01:59:07.285Z,33.80
2022-12-19T01:59:48.031Z,33.42
2022-12-19T02:00:19.641Z,32.80
2022-12-19T02:00:52.984Z,33.50
2022-12-19T02:01:25.534Z,34.63
2022-12-19T02:02:11.693Z,33.28
2022-12-19T02:02:53.972Z,31.33
2022-12-19T02:03:29.105Z,32.40
2022-12-19T02:04:01.980Z,33.70
2022-12-19T02:04:33.906Z,35.28
2022-12-19T02:05:06.100Z,35.67
2022-12-19T02:05:38.314Z,32.20
2022-12-19T02:06:10.562Z,34.63
2022-12-19T02:06:43.067Z,33.47
2022-12-19T02:07:16.597Z,33.28
2022-12-19T02:07:49.490Z,34.25
2022-12-19T02:08:21.803Z,34.22
2022-12-19T02:08:53.859Z,36.00
2022-12-19T02:09:25.695Z,35.72
2022-12-19T02:09:58.480Z,35.28
2022-12-19T02:10:38.854Z,33.50
2022-12-19T02:11:10.608Z,36.42
2022-12-19T02:11:43.073Z,34.75
2022-12-19T02:12:14.982Z,35.00
2022-12-19T02:12:49.271Z,34.67
2022-12-19T02:13:22.020Z,35.30
2022-12-19T02:13:53.564Z,39.00
2022-12-19T02:14:25.615Z,37.58
2022-12-19T02:15:03.118Z,36.15
2022-12-19T02:16:07.908Z,36.63
2022-12-19T02:16:50.543Z,32.05
2022-12-19T02:17:31.212Z,33.78
2022-12-19T02:18:24.269Z,34.20
2022-12-19T02:19:10.439Z,32.70
2022-12-19T02:20:03.294Z,33.08
2022-12-19T02:20:54.316Z,33.45
2022-12-19T02:21:58.239Z,33.55
2022-12-19T02:22:48.812Z,32.17
2022-12-19T02:23:52.994Z,31.77
2022-12-19T02:25:00.161Z,31.10
2022-12-19T02:25:50.411Z,30.08
2022-12-19T02:26:48.294Z,31.02
2022-12-19T02:27:40.829Z,28.90
2022-12-19T02:28:26.001Z,30.33
2022-12-19T02:29:09.281Z,25.17
2022-12-19T02:30:07.183Z,28.98
2022-12-19T02:30:54.001Z,26.60
2022-12-19T02:31:32.812Z,26.92
2022-12-19T02:32:13.353Z,26.63
2022-12-19T02:32:53.465Z,28.23
2022-12-19T02:33:34.114Z,28.13
2022-12-19T02:35:07.913Z,23.15
2022-12-19T02:35:47.144Z,26.20
2022-12-19T02:36:23.004Z,27.35
2022-12-19T02:37:08.339Z,27.83
2022-12-19T02:38:13.219Z,28.50
2022-12-19T02:38:54.552Z,26.83
2022-12-19T02:39:50.982Z,28.30
2022-12-19T02:40:33.744Z,28.25
2022-12-19T02:41:13.707Z,26.38
2022-12-19T02:41:57.136Z,25.52
2022-12-19T02:42:32.008Z,26.98
2022-12-19T02:43:06.811Z,27.27
2022-12-19T02:43:44.021Z,28.05
2022-12-19T02:44:22.514Z,27.55
2022-12-19T02:44:54.935Z,27.55
2022-12-19T02:45:33.920Z,29.13
2022-12-19T02:46:06.508Z,30.27
2022-12-19T02:46:41.953Z,28.25
2022-12-19T02:47:15.630Z,28.85
2022-12-19T02:47:47.460Z,27.13
2022-12-19T02:48:19.729Z,28.25
2022-12-19T02:48:51.914Z,28.92
2022-12-19T02:49:30.965Z,31.75
2022-12-19T02:50:04.615Z,27.27
2022-12-19T02:50:42.290Z,26.75
2022-12-19T02:51:15.972Z,26.95
2022-12-19T02:51:48.907Z,26.42
2022-12-19T02:52:23.183Z,26.42
2022-12-19T02:52:57.108Z,26.80
2022-12-19T02:53:28.672Z,25.45
2022-12-19T02:54:04.797Z,27.38
2022-12-19T02:54:37.927Z,27.35
2022-12-19T02:55:21.726Z,28.73
2022-12-19T02:56:16.739Z,28.38
2022-12-19T02:57:12.533Z,26.45
2022-12-19T02:58:17.756Z,25.98
2022-12-19T02:59:21.557Z,26.27
2022-12-19T03:00:08.159Z,26.17
2022-12-19T03:01:00.925Z,25.35
2022-12-19T03:01:42.094Z,24.67
2022-12-19T03:02:25.369Z,23.98
2022-12-19T03:03:18.530Z,27.75
2022-12-19T03:04:25.706Z,23.38
2022-12-19T03:05:16.808Z,24.35
2022-12-19T03:06:01.729Z,28.63
2022-12-19T03:06:40.977Z,25.00
2022-12-19T03:07:21.761Z,25.30
2022-12-19T03:08:25.237Z,25.10
2022-12-19T03:09:14.421Z,23.33
2022-12-19T03:09:53.355Z,25.98
2022-12-19T03:10:37.501Z,26.33
2022-12-19T03:11:13.300Z,26.77
2022-12-19T03:11:49.004Z,25.75
2022-12-19T03:12:29.580Z,25.98
2022-12-19T03:13:07.223Z,25.52
2022-12-19T03:13:43.930Z,27.40
2022-12-19T03:14:17.686Z,27.00
2022-12-19T03:14:49.647Z,29.08
2022-12-19T03:15:23.466Z,27.08
2022-12-19T03:15:57.397Z,30.50
2022-12-19T03:16:29.501Z,26.45
2022-12-19T03:17:06.121Z,27.27
2022-12-19T03:17:38.102Z,28.33
2022-12-19T03:18:10.008Z,28.00
2022-12-19T03:18:42.091Z,27.35
2022-12-19T03:19:14.863Z,28.00
2022-12-19T03:19:46.396Z,26.80
2022-12-19T03:20:46.022Z,27.65
2022-12-19T03:21:34.128Z,27.40
2022-12-19T03:22:06.016Z,24.25
2022-12-19T03:22:37.555Z,25.42
2022-12-19T03:23:09.327Z,26.60
2022-12-19T03:23:41.209Z,24.98
2022-12-19T03:24:13.901Z,27.55
2022-12-19T03:24:45.791Z,27.33
2022-12-19T03:25:18.728Z,29.42
2022-12-19T03:25:55.341Z,27.17
2022-12-19T03:26:29.225Z,24.70
2022-12-19T03:27:37.545Z,25.85
2022-12-19T03:28:13.341Z,24.83
2022-12-19T03:28:54.491Z,25.02
2022-12-19T03:29:30.424Z,27.40
2022-12-19T03:30:06.570Z,28.90
2022-12-19T03:30:43.325Z,25.55
2022-12-19T03:31:16.989Z,27.05
2022-12-19T03:31:48.683Z,26.98
2022-12-19T03:32:21.418Z,25.23
2022-12-19T03:32:54.849Z,29.65
2022-12-19T03:33:27.691Z,27.58
2022-12-19T03:34:02.662Z,29.13
2022-12-19T03:34:59.633Z,27.90
2022-12-19T03:35:32.218Z,26.55
2022-12-19T03:36:06.656Z,28.25
2022-12-19T03:36:41.988Z,28.90
2022-12-19T03:37:16.076Z,26.73
2022-12-19T03:37:49.641Z,25.05
2022-12-19T03:38:21.743Z,24.67
2022-12-19T03:38:53.773Z,28.13
2022-12-19T03:39:26.763Z,26.65
2022-12-19T03:40:04.833Z,26.95
2022-12-19T03:40:37.391Z,26.40
2022-12-19T03:41:10.656Z,23.92
2022-12-19T03:42:02.002Z,27.65
2022-12-19T03:43:26.271Z,23.52
2022-12-19T03:43:59.218Z,26.00
2022-12-19T03:44:33.549Z,25.08
2022-12-19T03:45:07.046Z,26.88
2022-12-19T03:46:02.649Z,28.77
2022-12-19T03:46:35.524Z,28.75
2022-12-19T03:47:23.705Z,27.80
2022-12-19T03:48:02.509Z,28.52
2022-12-19T03:48:47.993Z,25.50
2022-12-19T03:49:19.617Z,26.48
2022-12-19T03:49:51.187Z,27.00
2022-12-19T03:50:25.221Z,26.77
2022-12-19T03:51:15.410Z,27.88
2022-12-19T03:51:59.468Z,28.00
2022-12-19T03:53:10.492Z,29.27
2022-12-19T03:53:51.734Z,25.92
2022-12-19T03:54:26.764Z,25.40
2022-12-19T03:55:08.641Z,25.27
2022-12-19T03:55:48.380Z,25.63
2022-12-19T03:56:32.319Z,24.55
2022-12-19T03:57:06.565Z,26.25
2022-12-19T03:57:43.389Z,27.10
2022-12-19T03:58:24.803Z,24.13
2022-12-19T03:59:01.905Z,24.42
2022-12-19T03:59:34.853Z,26.23
2022-12-19T04:00:09.220Z,26.27
2022-12-19T04:00:49.638Z,25.80
2022-12-19T04:01:21.695Z,25.50
2022-12-19T04:01:53.760Z,27.30
2022-12-19T04:02:25.904Z,28.67
2022-12-19T04:02:58.783Z,24.95
2022-12-19T04:03:30.900Z,27.70
2022-12-19T04:04:03.630Z,27.38
2022-12-19T04:04:44.905Z,26.25
2022-12-19T04:05:21.606Z,28.83
2022-12-19T04:05:54.274Z,27.63
2022-12-19T04:06:28.623Z,25.88
2022-12-19T04:07:01.785Z,27.70
2022-12-19T04:07:34.077Z,26.67
2022-12-19T04:08:06.903Z,27.52
2022-12-19T04:08:39.651Z,25.05
2022-12-19T04:09:13.066Z,26.23
2022-12-19T04:09:47.145Z,30.05
2022-12-19T04:10:22.011Z,25.63
2022-12-19T04:10:55.993Z,27.27
2022-12-19T04:11:31.241Z,26.30
2022-12-19T04:12:07.146Z,27.27
2022-12-19T04:13:07.248Z,29.13
2022-12-19T04:13:47.311Z,25.55
2022-12-19T04:14:39.098Z,25.27
2022-12-19T04:15:13.852Z,25.27
2022-12-19T04:15:58.313Z,25.63
2022-12-19T04:16:32.915Z,25.20
2022-12-19T04:17:15.782Z,25.00
2022-12-19T04:17:57.538Z,25.60
2022-12-19T04:18:29.613Z,28.50
2022-12-19T04:19:11.612Z,25.13
2022-12-19T04:20:01.526Z,26.17
2022-12-19T04:20:35.258Z,23.15
2022-12-19T04:21:12.998Z,24.65
2022-12-19T04:21:49.578Z,25.02
2022-12-19T04:22:26.048Z,26.90
2022-12-19T04:23:04.710Z,24.58
2022-12-19T04:23:44.939Z,26.13
2022-12-19T04:24:21.763Z,23.65
2022-12-19T04:24:54.917Z,22.80
2022-12-19T04:25:29.876Z,24.55
2022-12-19T04:26:03.555Z,25.25
2022-12-19T04:26:36.640Z,25.75
2022-12-19T04:27:09.648Z,25.42
2022-12-19T04:27:45.396Z,27.20
2022-12-19T04:28:27.310Z,23.80
2022-12-19T04:29:01.877Z,24.90
2022-12-19T04:29:34.733Z,24.38
2022-12-19T04:30:09.924Z,26.67
2022-12-19T04:30:43.250Z,27.38
2022-12-19T04:31:16.398Z,26.77
2022-12-19T04:31:48.523Z,28.70
2022-12-19T04:32:20.649Z,29.42
2022-12-19T04:32:56.377Z,29.75
2022-12-19T04:33:27.933Z,29.02
2022-12-19T04:33:59.662Z,27.08
2022-12-19T04:34:36.028Z,27.45
2022-12-19T04:35:11.033Z,25.35
2022-12-19T04:35:42.595Z,27.25
2022-12-19T04:36:14.188Z,27.23
2022-12-19T04:36:45.863Z,28.85
2022-12-19T04:37:17.457Z,29.40
2022-12-19T04:37:49.013Z,26.20
2022-12-19T04:38:23.346Z,30.52
2022-12-19T04:38:54.854Z,26.80
2022-12-19T04:39:26.377Z,28.63
2022-12-19T04:39:58.710Z,27.98
2022-12-19T04:40:30.235Z,28.30
2022-12-19T04:41:02.087Z,27.85
2022-12-19T04:41:33.698Z,27.00
2022-12-19T04:42:08.375Z,29.52
2022-12-19T04:42:40.099Z,27.48
2022-12-19T04:43:11.567Z,28.13
2022-12-19T04:43:43.232Z,27.70
2022-12-19T04:44:14.850Z,28.25
2022-12-19T04:44:46.386Z,27.42
2022-12-19T04:45:17.904Z,29.58
2022-12-19T04:45:54.023Z,27.48
2022-12-19T04:46:28.672Z,28.17
2022-12-19T04:47:00.225Z,28.35
2022-12-19T04:47:31.965Z,29.80
2022-12-19T04:48:03.674Z,29.10
2022-12-19T04:48:36.951Z,29.95
2022-12-19T04:49:08.796Z,32.65
2022-12-19T04:49:40.385Z,31.42
2022-12-19T04:50:12.213Z,31.98
2022-12-19T04:50:43.728Z,35.10
2022-12-19T04:51:18.499Z,31.83
2022-12-19T04:51:50.040Z,33.63
2022-12-19T04:52:21.541Z,35.00
2022-12-19T04:52:56.980Z,34.33
2022-12-19T04:53:28.869Z,34.60
2022-12-19T04:54:00.404Z,34.78
2022-12-19T04:54:33.802Z,32.80
2022-12-19T04:55:05.805Z,34.25
2022-12-19T04:55:37.431Z,34.05
2022-12-19T04:56:10.334Z,33.67
2022-12-19T04:56:41.945Z,32.63
2022-12-19T04:57:13.573Z,32.30
2022-12-19T04:57:47.173Z,33.05
2022-12-19T04:58:21.818Z,33.78
2022-12-19T04:59:00.163Z,32.90
2022-12-19T04:59:31.903Z,33.88
2022-12-19T05:00:05.164Z,33.85
2022-12-19T05:00:36.710Z,33.65
2022-12-19T05:01:09.147Z,31.05
2022-12-19T05:01:41.008Z,36.13
2022-12-19T05:02:12.758Z,34.83
2022-12-19T05:02:44.650Z,35.60
2022-12-19T05:03:16.422Z,36.08
2022-12-19T05:03:54.079Z,37.35
2022-12-19T05:04:26.781Z,34.35
2022-12-19T05:04:58.803Z,35.50
2022-12-19T05:05:30.347Z,34.42
2022-12-19T05:06:13.397Z,33.28
2022-12-19T05:06:45.165Z,34.88
2022-12-19T05:07:19.359Z,32.88
2022-12-19T05:07:51.653Z,34.72
2022-12-19T05:08:23.171Z,33.65
2022-12-19T05:08:55.604Z,35.60
2022-12-19T05:09:27.157Z,35.40
2022-12-19T05:10:01.130Z,34.13
2022-12-19T05:10:32.679Z,32.78
2022-12-19T05:11:05.890Z,33.70
2022-12-19T05:11:38.005Z,31.10
2022-12-19T05:12:10.230Z,33.10
2022-12-19T05:12:44.080Z,33.95
2022-12-19T05:13:16.087Z,31.90
2022-12-19T05:13:51.670Z,32.15
2022-12-19T05:14:23.266Z,34.25
2022-12-19T05:14:54.778Z,32.83
2022-12-19T05:15:26.422Z,32.40
2022-12-19T05:16:03.002Z,32.60
2022-12-19T05:16:37.594Z,33.08
2022-12-19T05:17:09.116Z,30.00
2022-12-19T05:17:41.036Z,31.27
2022-12-19T05:18:12.570Z,31.85
2022-12-19T05:18:44.123Z,30.30
2022-12-19T05:19:16.906Z,32.20
2022-12-19T05:19:49.110Z,31.77
2022-12-19T05:20:20.904Z,32.72
2022-12-19T05:20:53.217Z,31.50
2022-12-19T05:21:28.056Z,30.63
2022-12-19T05:21:59.642Z,31.88
2022-12-19T05:22:38.521Z,30.33
2022-12-19T05:23:16.795Z,32.78
2022-12-19T05:23:49.800Z,31.25
2022-12-19T05:24:21.480Z,31.65
2022-12-19T05:24:53.005Z,32.67
2022-12-19T05:25:24.572Z,33.05
2022-12-19T05:26:03.112Z,31.13
2022-12-19T05:26:34.631Z,31.98
2022-12-19T05:27:06.504Z,30.90
2022-12-19T05:27:38.051Z,30.10
2022-12-19T05:28:09.562Z,29.60
2022-12-19T05:28:41.572Z,29.48
2022-12-19T05:29:13.268Z,31.73
2022-12-19T05:29:44.848Z,31.40
2022-12-19T05:30:16.398Z,30.90
2022-12-19T05:30:52.085Z,30.92
2022-12-19T05:31:25.737Z,30.77
2022-12-19T05:31:57.330Z,28.92
2022-12-19T05:32:33.871Z,30.77
2022-12-19T05:33:05.484Z,30.60
2022-12-19T05:33:37.357Z,29.90
2022-12-19T05:34:08.917Z,31.05
2022-12-19T05:34:40.415Z,28.92
2022-12-19T05:35:11.950Z,30.38
2022-12-19T05:35:43.907Z,29.35
2022-12-19T05:36:16.376Z,28.95
2022-12-19T05:36:47.945Z,29.70
2022-12-19T05:37:19.440Z,27.73
2022-12-19T05:37:51.289Z,31.70
2022-12-19T05:38:22.806Z,28.48
2022-12-19T05:38:54.317Z,27.88
2022-12-19T05:39:25.826Z,28.45
2022-12-19T05:40:04.734Z,29.30
2022-12-19T05:40:36.363Z,28.95
2022-12-19T05:41:15.837Z,28.77
2022-12-19T05:41:49.153Z,27.42
2022-12-19T05:42:20.914Z,28.40
2022-12-19T05:42:52.555Z,27.77
2022-12-19T05:43:24.320Z,28.15
2022-12-19T05:43:56.409Z,29.80
2022-12-19T05:44:28.019Z,26.50
2022-12-19T05:44:59.534Z,29.25
2022-12-19T05:45:31.092Z,28.67
2022-12-19T05:46:04.633Z,28.63
2022-12-19T05:46:36.488Z,29.27
2022-12-19T05:47:08.069Z,28.65
2022-12-19T05:47:39.569Z,30.27
2022-12-19T05:48:11.276Z,30.20
2022-12-19T05:48:42.804Z,27.73
2022-12-19T05:49:17.823Z,29.30
2022-12-19T05:49:49.486Z,27.20
2022-12-19T05:50:21.209Z,30.50
2022-12-19T05:50:55.738Z,30.23
2022-12-19T05:51:27.334Z,27.77
2022-12-19T05:51:58.998Z,29.48
2022-12-19T05:52:31.078Z,30.38
2022-12-19T05:53:02.672Z,28.48
2022-12-19T05:53:45.497Z,29.05
2022-12-19T05:54:18.070Z,28.50
2022-12-19T05:54:49.591Z,27.50
2022-12-19T05:55:21.093Z,28.63
2022-12-19T05:55:52.615Z,28.92
2022-12-19T05:56:24.153Z,27.23
2022-12-19T05:56:57.193Z,28.33
2022-12-19T05:57:29.373Z,27.60
2022-12-19T05:58:00.998Z,30.13
2022-12-19T05:58:33.542Z,28.75
2022-12-19T05:59:05.041Z,28.42
2022-12-19T05:59:36.617Z,26.40
2022-12-19T06:00:11.471Z,26.13
2022-12-19T06:00:45.981Z,27.30
2022-12-19T06:01:22.989Z,27.45
2022-12-19T06:01:54.638Z,27.25
2022-12-19T06:02:27.742Z,28.52
2022-12-19T06:02:59.452Z,29.02
2022-12-19T06:03:31.145Z,27.70
2022-12-19T06:04:04.296Z,28.55
2022-12-19T06:04:38.512Z,26.45
2022-12-19T06:05:10.106Z,27.90
2022-12-19T06:05:41.923Z,28.25
2022-12-19T06:06:19.591Z,28.33
2022-12-19T06:06:51.085Z,26.48
2022-12-19T06:07:22.872Z,27.90
2022-12-19T06:07:55.230Z,27.15
2022-12-19T06:08:26.948Z,28.48
2022-12-19T06:08:59.673Z,28.92
2022-12-19T06:09:31.288Z,27.35
2022-12-19T06:10:03.831Z,27.90
2022-12-19T06:10:35.356Z,26.42
2022-12-19T06:11:08.301Z,29.65
2022-12-19T06:11:39.816Z,26.38
2022-12-19T06:12:11.321Z,27.10
2022-12-19T06:12:42.849Z,26.85
2022-12-19T06:13:15.431Z,27.33
2022-12-19T06:13:46.916Z,29.23
2022-12-19T06:14:18.537Z,29.02
2022-12-19T06:14:51.392Z,28.80
2022-12-19T06:15:23.012Z,26.30
2022-12-19T06:15:59.299Z,26.70
2022-12-19T06:16:30.936Z,27.15
2022-12-19T06:17:02.495Z,27.42
2022-12-19T06:17:34.450Z,27.45
2022-12-19T06:18:06.154Z,27.13
2022-12-19T06:18:42.910Z,27.00
2022-12-19T06:19:15.956Z,28.52
2022-12-19T06:19:50.668Z,25.55
2022-12-19T06:20:22.474Z,26.42
2022-12-19T06:20:59.131Z,26.58
2022-12-19T06:21:30.705Z,28.25
2022-12-19T06:22:02.184Z,26.40
2022-12-19T06:22:34.422Z,27.30
2022-12-19T06:23:05.952Z,26.70
2022-12-19T06:23:37.952Z,25.80
2022-12-19T06:24:09.525Z,27.20
2022-12-19T06:24:41.119Z,27.23
2022-12-19T06:25:15.328Z,25.95
2022-12-19T06:25:46.826Z,24.90
2022-12-19T06:26:22.667Z,28.13
2022-12-19T06:26:54.847Z,24.58
2022-12-19T06:27:26.359Z,24.75
2022-12-19T06:27:57.898Z,26.35
2022-12-19T06:28:30.790Z,24.85
2022-12-19T06:29:02.548Z,23.98
2022-12-19T06:29:34.161Z,23.80
2022-12-19T06:30:06.477Z,24.67
2022-12-19T06:30:40.128Z,24.20
2022-12-19T06:31:12.558Z,25.17
2022-12-19T06:31:46.417Z,25.75
2022-12-19T06:32:17.961Z,24.38
2022-12-19T06:32:49.459Z,23.90
2022-12-19T06:33:21.056Z,26.50
2022-12-19T06:33:52.885Z,24.98
2022-12-19T06:34:54.874Z,26.90
2022-12-19T06:35:48.337Z,22.88
2022-12-19T06:36:22.267Z,24.02
2022-12-19T06:36:56.791Z,24.35
2022-12-19T06:37:28.332Z,23.05
2022-12-19T06:38:01.125Z,23.35
2022-12-19T06:38:34.353Z,24.25
2022-12-19T06:39:05.987Z,24.00
2022-12-19T06:39:37.621Z,24.63
2022-12-19T06:40:29.745Z,24.13
2022-12-19T06:41:21.307Z,24.02
2022-12-19T06:42:11.832Z,23.85
2022-12-19T06:42:43.335Z,22.25
2022-12-19T06:43:14.873Z,23.10
2022-12-19T06:43:50.532Z,23.98
2022-12-19T06:44:24.845Z,25.90
2022-12-19T06:44:56.585Z,26.05
2022-12-19T06:45:28.242Z,24.13
2022-12-19T06:45:59.846Z,24.65
2022-12-19T06:46:31.976Z,23.90
2022-12-19T06:47:03.585Z,25.67
2022-12-19T06:47:35.092Z,24.55
2022-12-19T06:48:09.382Z,24.60
2022-12-19T06:48:41.626Z,24.52
2022-12-19T06:49:13.396Z,25.17
2022-12-19T06:49:48.792Z,25.35
2022-12-19T06:50:21.354Z,24.73
2022-12-19T06:50:53.024Z,25.17
2022-12-19T06:51:24.637Z,23.70
2022-12-19T06:51:56.129Z,23.48
2022-12-19T06:52:27.640Z,24.52
2022-12-19T06:53:00.007Z,24.38
2022-12-19T06:53:38.792Z,23.40
2022-12-19T06:54:11.415Z,23.52
2022-12-19T06:54:43.089Z,26.42
2022-12-19T06:55:14.683Z,24.35
2022-12-19T06:55:50.820Z,25.77
2022-12-19T06:56:22.888Z,23.50
2022-12-19T06:56:55.901Z,24.48
2022-12-19T06:57:27.391Z,24.08
2022-12-19T06:57:58.882Z,24.90
2022-12-19T06:58:31.073Z,23.63
2022-12-19T06:59:02.964Z,23.00
2022-12-19T06:59:34.522Z,24.13
2022-12-19T07:00:06.677Z,24.92
2022-12-19T07:00:38.789Z,24.52
2022-12-19T07:01:21.184Z,23.48
2022-12-19T07:02:13.299Z,22.40
2022-12-19T07:02:49.100Z,20.65
2022-12-19T07:03:27.075Z,24.65
2022-12-19T07:03:58.748Z,23.70
2022-12-19T07:04:39.547Z,23.13
2022-12-19T07:05:11.857Z,22.73
2022-12-19T07:05:43.535Z,24.52
2022-12-19T07:06:15.406Z,23.50
2022-12-19T07:06:49.324Z,24.20
2022-12-19T07:07:21.260Z,23.13
2022-12-19T07:07:52.899Z,24.33
2022-12-19T07:08:24.415Z,23.25
2022-12-19T07:08:58.922Z,23.50
2022-12-19T07:09:30.680Z,24.05
2022-12-19T07:10:03.454Z,23.02
2022-12-19T07:10:35.154Z,24.45
2022-12-19T07:11:06.852Z,22.38
2022-12-19T07:11:38.364Z,22.25
2022-12-19T07:12:09.904Z,23.75
2022-12-19T07:12:41.437Z,25.45
2022-12-19T07:13:13.095Z,23.33
2022-12-19T07:13:44.705Z,23.92
2022-12-19T07:14:16.408Z,23.17
2022-12-19T07:14:53.004Z,23.60
2022-12-19T07:15:25.355Z,22.95
2022-12-19T07:16:03.351Z,22.50
2022-12-19T07:16:34.982Z,24.65
2022-12-19T07:17:06.644Z,22.95
2022-12-19T07:17:38.691Z,23.10
2022-12-19T07:18:10.720Z,23.05
2022-12-19T07:18:42.401Z,24.00
2022-12-19T07:19:14.194Z,23.98
2022-12-19T07:19:46.947Z,24.35
2022-12-19T07:20:26.218Z,25.02
2022-12-19T07:20:58.133Z,23.65
2022-12-19T07:21:29.856Z,22.08
2022-12-19T07:22:02.261Z,22.30
2022-12-19T07:22:34.632Z,23.98
2022-12-19T07:23:06.939Z,23.83
2022-12-19T07:23:38.612Z,22.98
2022-12-19T07:24:11.447Z,22.58
2022-12-19T07:24:43.368Z,23.35
2022-12-19T07:25:20.381Z,23.65
2022-12-19T07:25:52.002Z,23.50
2022-12-19T07:26:24.435Z,21.58
2022-12-19T07:26:56.136Z,24.25
2022-12-19T07:27:35.246Z,25.25
2022-12-19T07:28:07.965Z,25.48
2022-12-19T07:28:39.625Z,23.95
2022-12-19T07:29:11.976Z,24.73
2022-12-19T07:29:43.559Z,22.25
2022-12-19T07:30:15.075Z,24.52
2022-12-19T07:30:46.615Z,23.98
2022-12-19T07:31:19.755Z,24.65
2022-12-19T07:31:51.386Z,23.60
2022-12-19T07:32:22.999Z,24.80
2022-12-19T07:32:54.510Z,25.30
2022-12-19T07:33:26.266Z,24.10
2022-12-19T07:33:58.128Z,25.58
2022-12-19T07:34:30.155Z,23.95